Time;durP1;ratioP1;P1;durP2;ratioP2;P2;SDS_P1;SDS_P2;PMS_P1;PMS_P2;Temp;Humidity;BMP_temperature;BMP_pressure;BME280_temperature;BME280_humidity;BME280_pressure;Samples;Min_cycle;Max_cycle;Signal;HPM_P1;HPM_P2
2021/04/19 00:01:58;;;;;;;8.25;4.78;;;9.70;84.50;;;;;;5937196;39;20048;-70
2021/04/19 00:06:04;;;;;;;9.98;3.70;;;9.60;84.00;;;;;;5940433;39;20080;-69
2021/04/19 00:10:12;;;;;;;10.73;4.85;;;9.70;84.60;;;;;;5932333;39;20059;-70
2021/04/19 00:14:17;;;;;;;12.73;4.10;;;9.60;84.40;;;;;;5921485;40;20584;-70
2021/04/19 00:18:21;;;;;;;16.05;5.78;;;9.60;84.50;;;;;;5921217;40;20049;-70
2021/04/19 00:22:29;;;;;;;12.18;5.50;;;9.50;83.50;;;;;;5904326;40;20052;-70
2021/04/19 00:26:33;;;;;;;11.23;5.13;;;9.50;83.30;;;;;;5919446;40;20048;-70
2021/04/19 00:30:38;;;;;;;11.98;4.75;;;9.50;82.70;;;;;;5923528;40;20343;-71
2021/04/19 00:34:42;;;;;;;13.65;5.18;;;9.50;82.70;;;;;;5924785;40;20440;-70
2021/04/19 00:38:46;;;;;;;12.70;5.85;;;9.40;84.60;;;;;;5923411;40;20301;-71
2021/04/19 00:42:54;;;;;;;15.32;5.80;;;9.30;84.90;;;;;;5909214;40;20440;-70
2021/04/19 00:46:59;;;;;;;11.68;5.20;;;9.20;85.20;;;;;;5916623;40;20049;-70
2021/04/19 00:51:06;;;;;;;12.18;5.53;;;9.20;85.00;;;;;;5917705;40;20055;-69
2021/04/19 00:55:16;;;;;;;11.88;6.18;;;9.10;85.00;;;;;;5928494;40;20507;-69
2021/04/19 00:59:20;;;;;;;12.07;5.55;;;9.10;85.90;;;;;;5930169;40;20110;-69
2021/04/19 01:03:25;;;;;;;13.07;5.32;;;9.00;86.50;;;;;;5930081;40;20089;-70
2021/04/19 01:07:30;;;;;;;16.38;6.00;;;8.90;86.20;;;;;;5936023;39;20080;-69
2021/04/19 01:11:36;;;;;;;13.60;5.55;;;8.90;86.40;;;;;;5942413;39;20109;-69
2021/04/19 01:15:43;;;;;;;12.00;5.30;;;8.80;85.80;;;;;;5942497;39;20362;-70
2021/04/19 01:19:50;;;;;;;12.27;5.00;;;8.80;86.50;;;;;;5933590;39;20059;-69
2021/04/19 01:23:55;;;;;;;15.57;6.10;;;8.70;87.50;;;;;;5931912;39;20045;-69
2021/04/19 01:28:00;;;;;;;12.18;5.43;;;8.60;88.00;;;;;;5935052;39;20055;-69
2021/04/19 01:32:05;;;;;;;14.07;6.00;;;8.50;88.40;;;;;;5934010;39;20242;-69
2021/04/19 01:36:11;;;;;;;17.45;5.60;;;8.50;89.30;;;;;;5932541;39;20084;-69
2021/04/19 01:40:17;;;;;;;11.13;5.63;;;8.40;88.70;;;;;;5928541;39;20060;-69
2021/04/19 01:44:22;;;;;;;17.73;7.05;;;8.30;89.80;;;;;;5936685;39;20132;-69
2021/04/19 01:48:27;;;;;;;11.73;5.88;;;8.30;88.20;;;;;;5940679;40;20059;-69
2021/04/19 01:52:33;;;;;;;17.55;6.65;;;8.30;89.80;;;;;;5948480;39;20044;-69
2021/04/19 01:56:45;;;;;;;12.50;6.10;;;6.90;88.30;;;;;;5939801;39;20144;-69
2021/04/19 02:00:55;;;;;;;16.35;6.32;;;8.20;88.70;;;;;;5945999;39;20055;-69
2021/04/19 02:05:23;;;;;;;15.60;5.97;;;8.10;90.10;;;;;;5947906;39;20067;-68
2021/04/19 02:09:37;;;;;;;14.15;6.00;;;8.10;89.70;;;;;;5936039;39;20048;-68
2021/04/19 02:14:08;;;;;;;13.25;6.43;;;8.10;89.40;;;;;;5933070;39;20078;-69
2021/04/19 02:18:29;;;;;;;11.02;5.53;;;8.00;89.90;;;;;;5932388;39;20048;-69
2021/04/19 02:22:40;;;;;;;16.85;5.53;;;8.00;90.30;;;;;;5941188;39;20040;-68
2021/04/19 02:27:02;;;;;;;14.25;5.63;;;7.90;90.50;;;;;;5946167;39;20064;-69
2021/04/19 02:31:10;;;;;;;8.10;4.97;;;8.00;91.10;;;;;;5932320;39;20509;-69
2021/04/19 02:35:17;;;;;;;10.95;5.65;;;7.80;91.00;;;;;;5948395;39;20820;-69
2021/04/19 02:39:41;;;;;;;13.05;6.10;;;7.80;90.60;;;;;;5945775;39;20400;-69
2021/04/19 02:43:46;;;;;;;18.40;5.53;;;7.80;91.00;;;;;;5941714;39;20028;-70
2021/04/19 02:48:04;;;;;;;14.52;5.07;;;7.70;90.80;;;;;;5930057;39;20052;-69
2021/04/19 02:52:18;;;;;;;12.00;6.18;;;7.70;90.80;;;;;;5932514;39;20664;-70
2021/04/19 02:56:23;;;;;;;12.95;5.65;;;7.70;91.10;;;;;;5933004;39;20048;-70
2021/04/19 03:00:32;;;;;;;12.20;5.90;;;7.60;91.60;;;;;;5922590;39;20169;-69
2021/04/19 03:04:40;;;;;;;12.70;5.57;;;7.60;91.60;;;;;;5914140;39;20047;-69
2021/04/19 03:08:52;;;;;;;12.48;5.80;;;7.50;92.00;;;;;;5925435;39;20043;-69
2021/04/19 03:13:03;;;;;;;13.13;5.07;;;7.50;91.40;;;;;;5921453;39;20265;-70
2021/04/19 03:17:15;;;;;;;11.95;5.45;;;7.40;91.90;;;;;;5936211;39;20044;-71
2021/04/19 03:21:40;;;;;;;16.98;6.43;;;7.40;92.50;;;;;;5935605;39;20154;-70
2021/04/19 03:25:52;;;;;;;13.93;6.15;;;7.40;91.40;;;;;;5939903;39;20131;-70
2021/04/19 03:30:00;;;;;;;17.98;6.63;;;7.40;91.20;;;;;;5932996;39;20052;-70
2021/04/19 03:34:21;;;;;;;11.03;5.90;;;7.40;92.20;;;;;;5926435;39;20128;-70
2021/04/19 03:38:28;;;;;;;14.60;6.43;;;7.40;91.80;;;;;;5936360;39;20104;-70
2021/04/19 03:42:34;;;;;;;15.48;6.28;;;7.40;92.10;;;;;;5935502;39;20048;-70
2021/04/19 03:46:43;;;;;;;15.27;6.28;;;6.90;92.00;;;;;;5938032;39;20052;-71
2021/04/19 03:51:09;;;;;;;18.85;6.70;;;7.30;91.40;;;;;;5935326;39;20204;-71
2021/04/19 03:55:20;;;;;;;12.82;6.55;;;7.30;92.20;;;;;;5929375;39;20083;-70
2021/04/19 03:59:30;;;;;;;16.05;6.22;;;7.20;92.10;;;;;;5940951;39;20064;-70
2021/04/19 04:03:39;;;;;;;13.18;6.05;;;7.20;92.00;;;;;;5942351;39;20050;-69
2021/04/19 04:07:54;;;;;;;14.93;6.95;;;7.20;91.90;;;;;;5928102;39;20508;-69
2021/04/19 04:11:57;;;;;;;19.48;6.35;;;7.20;91.90;;;;;;5922369;39;20036;-69
2021/04/19 04:16:08;;;;;;;14.30;6.35;;;7.10;92.40;;;;;;5949615;39;20059;-70
2021/04/19 04:20:28;;;;;;;13.95;6.30;;;7.10;92.20;;;;;;5938204;39;20052;-69
2021/04/19 04:24:45;;;;;;;11.98;5.88;;;7.10;92.20;;;;;;5926396;39;20501;-71
2021/04/19 04:29:00;;;;;;;12.70;5.78;;;7.10;92.50;;;;;;5925504;39;20067;-69
2021/04/19 04:33:11;;;;;;;14.60;6.13;;;7.10;92.70;;;;;;5934092;39;20123;-69
2021/04/19 04:37:20;;;;;;;12.77;5.80;;;7.10;93.10;;;;;;5934807;39;20052;-69
2021/04/19 04:41:38;;;;;;;13.90;6.18;;;7.00;93.50;;;;;;5924353;39;20044;-69
2021/04/19 04:45:43;;;;;;;19.00;6.57;;;7.00;93.00;;;;;;5926427;39;20438;-69
2021/04/19 04:50:02;;;;;;;13.30;5.65;;;7.00;93.80;;;;;;5936555;39;20055;-69
2021/04/19 04:54:12;;;;;;;13.23;6.13;;;7.00;93.60;;;;;;5937794;39;20051;-69
2021/04/19 04:58:17;;;;;;;12.00;5.65;;;7.00;93.50;;;;;;5945640;39;20502;-69
2021/04/19 05:02:24;;;;;;;13.35;5.95;;;7.00;93.50;;;;;;5946415;39;20134;-69
2021/04/19 05:06:32;;;;;;;13.10;5.20;;;7.10;93.40;;;;;;5946925;39;20114;-69
2021/04/19 05:10:39;;;;;;;12.25;5.60;;;7.20;94.10;;;;;;5939891;40;20067;-70
2021/04/19 05:15:00;;;;;;;13.13;5.80;;;7.20;93.70;;;;;;5928908;39;20326;-69
2021/04/19 05:19:06;;;;;;;13.40;6.50;;;7.30;95.40;;;;;;5937303;39;20077;-70
2021/04/19 05:23:12;;;;;;;11.77;5.57;;;7.70;93.20;;;;;;5937310;39;20048;-71
2021/04/19 05:27:19;;;;;;;11.82;5.28;;;7.40;93.00;;;;;;5927950;39;20056;-69
2021/04/19 05:31:23;;;;;;;10.70;5.80;;;7.50;93.20;;;;;;5935214;39;20464;-70
2021/04/19 05:35:31;;;;;;;12.38;5.72;;;7.60;93.20;;;;;;5927470;39;20040;-69
2021/04/19 05:39:36;;;;;;;9.10;3.92;;;7.70;93.50;;;;;;5931902;39;20093;-69
2021/04/19 05:43:42;;;;;;;13.57;5.80;;;7.70;92.80;;;;;;5931475;39;20060;-71
2021/04/19 05:47:50;;;;;;;12.68;5.22;;;7.80;92.70;;;;;;5934646;39;20096;-67
2021/04/19 05:52:00;;;;;;;13.25;5.85;;;7.80;92.70;;;;;;5920384;39;20055;-65
2021/04/19 05:56:08;;;;;;;10.27;5.10;;;8.00;92.70;;;;;;5920899;39;20055;-73
2021/04/19 06:00:38;;;;;;;10.77;4.85;;;8.10;91.60;;;;;;5935883;39;20036;-72
2021/04/19 06:04:50;;;;;;;8.93;5.40;;;8.20;91.60;;;;;;5934400;39;20055;-72
2021/04/19 06:09:02;;;;;;;10.50;5.60;;;8.30;92.00;;;;;;5940912;39;20048;-72
2021/04/19 06:13:31;;;;;;;13.68;5.65;;;8.40;91.80;;;;;;5937895;39;20052;-72
2021/04/19 06:17:37;;;;;;;12.63;4.97;;;8.50;91.80;;;;;;5934440;39;20056;-72
2021/04/19 06:21:43;;;;;;;13.20;5.10;;;8.60;91.40;;;;;;5933874;39;20325;-72
2021/04/19 06:25:48;;;;;;;8.65;4.35;;;9.00;91.40;;;;;;5935334;39;20055;-72
2021/04/19 06:29:53;;;;;;;11.80;4.88;;;9.00;91.00;;;;;;5940727;39;20040;-72
2021/04/19 06:34:04;;;;;;;11.32;5.32;;;9.10;90.40;;;;;;5929451;39;20060;-72
2021/04/19 06:38:08;;;;;;;14.18;4.72;;;9.20;90.80;;;;;;5930431;39;20048;-72
2021/04/19 06:42:15;;;;;;;10.95;3.88;;;9.40;90.70;;;;;;5931282;39;20059;-73
2021/04/19 06:46:19;;;;;;;12.48;4.95;;;9.50;90.10;;;;;;5938194;39;20080;-72
2021/04/19 06:50:24;;;;;;;16.35;5.55;;;9.70;90.20;;;;;;5939113;39;20661;-72
2021/04/19 06:54:25;;;;;;;11.43;3.97;;;9.90;89.80;;;;;;5935562;39;20448;-72
2021/04/19 06:58:30;;;;;;;10.10;4.60;;;10.10;89.50;;;;;;5933351;39;20048;-72
2021/04/19 07:02:52;;;;;;;9.30;3.83;;;10.10;89.50;;;;;;5939404;40;20048;-72
2021/04/19 07:06:59;;;;;;;9.95;4.40;;;10.20;89.50;;;;;;5950458;39;21001;-72
2021/04/19 07:11:04;;;;;;;9.80;4.07;;;10.30;89.00;;;;;;5947382;39;20063;-72
2021/04/19 07:15:09;;;;;;;9.32;4.22;;;10.30;88.70;;;;;;5950500;39;20101;-73
2021/04/19 07:19:14;;;;;;;10.50;3.63;;;10.30;88.40;;;;;;5942772;39;20055;-72
2021/04/19 07:23:21;;;;;;;9.20;3.80;;;10.40;88.40;;;;;;5952602;39;20064;-72
2021/04/19 07:27:30;;;;;;;7.75;3.28;;;10.40;88.40;;;;;;5931909;39;20056;-72
2021/04/19 07:31:56;;;;;;;9.38;3.65;;;10.60;88.10;;;;;;5919647;39;20315;-73
2021/04/19 07:36:20;;;;;;;8.02;3.35;;;10.70;88.00;;;;;;5930860;39;20066;-73
2021/04/19 07:40:48;;;;;;;8.25;3.35;;;10.80;88.30;;;;;;5943963;39;20064;-72
2021/04/19 07:44:57;;;;;;;6.03;2.45;;;10.90;86.90;;;;;;5934731;39;20047;-72
2021/04/19 07:49:08;;;;;;;9.02;2.67;;;11.00;85.60;;;;;;5940241;39;20059;-72
2021/04/19 07:53:18;;;;;;;11.07;4.00;;;10.80;86.00;;;;;;5941161;39;20133;-73
2021/04/19 07:57:22;;;;;;;8.60;3.08;;;10.90;85.60;;;;;;5934719;39;20055;-73
2021/04/19 08:01:29;;;;;;;6.22;2.80;;;11.10;85.00;;;;;;5930105;39;20063;-74
2021/04/19 08:05:34;;;;;;;9.33;4.40;;;11.20;84.40;;;;;;5951159;39;20048;-72
2021/04/19 08:10:01;;;;;;;9.90;3.28;;;11.20;84.30;;;;;;5942068;39;20060;-73
2021/04/19 08:14:05;;;;;;;8.10;2.88;;;11.40;84.00;;;;;;5952294;39;20058;-72
2021/04/19 08:18:22;;;;;;;10.00;3.38;;;11.60;83.00;;;;;;5941894;39;20040;-73
2021/04/19 08:22:31;;;;;;;8.88;3.30;;;11.70;83.20;;;;;;5952997;39;20044;-72
2021/04/19 08:26:56;;;;;;;7.85;2.95;;;11.90;82.40;;;;;;5935186;39;20150;-72
2021/04/19 08:31:02;;;;;;;13.38;3.33;;;12.00;80.70;;;;;;5932630;39;20047;-73
2021/04/19 08:35:07;;;;;;;8.35;3.30;;;12.00;82.30;;;;;;5930718;39;20055;-73
2021/04/19 08:39:13;;;;;;;7.07;2.60;;;12.20;82.20;;;;;;5944189;39;20509;-73
2021/04/19 08:43:23;;;;;;;7.05;3.38;;;12.00;80.60;;;;;;5929390;39;20113;-73
2021/04/19 08:47:28;;;;;;;6.78;2.42;;;12.00;81.00;;;;;;5928280;39;20044;-72
2021/04/19 08:51:35;;;;;;;7.90;2.90;;;12.10;81.00;;;;;;5924900;39;20121;-72
2021/04/19 08:55:41;;;;;;;9.18;3.10;;;12.20;80.50;;;;;;5943094;39;20048;-73
2021/04/19 08:59:50;;;;;;;10.85;3.17;;;12.60;79.20;;;;;;5944144;39;20092;-73
2021/04/19 09:04:08;;;;;;;11.43;3.90;;;12.70;78.60;;;;;;5952253;39;20032;-73
2021/04/19 09:08:15;;;;;;;8.63;2.78;;;12.90;77.80;;;;;;5940896;39;20072;-73
2021/04/19 09:12:22;;;;;;;9.27;3.20;;;13.30;77.00;;;;;;5936759;39;20052;-73
2021/04/19 09:16:39;;;;;;;8.52;3.28;;;13.30;76.00;;;;;;5943922;39;20040;-73
2021/04/19 09:20:45;;;;;;;8.90;3.63;;;13.10;75.40;;;;;;5925409;39;20044;-73
2021/04/19 09:25:07;;;;;;;10.52;3.58;;;13.10;76.30;;;;;;5930729;39;20040;-73
2021/04/19 09:29:35;;;;;;;9.35;3.70;;;13.00;75.60;;;;;;5928680;39;20050;-73
2021/04/19 09:33:45;;;;;;;9.15;3.30;;;13.00;74.60;;;;;;5924007;39;20146;-73
2021/04/19 09:37:55;;;;;;;7.18;3.30;;;12.80;76.30;;;;;;5930318;39;20451;-73
2021/04/19 09:41:59;;;;;;;10.90;3.58;;;12.80;76.00;;;;;;5934512;39;20056;-71
2021/04/19 09:46:07;;;;;;;8.85;3.30;;;12.80;75.90;;;;;;5928220;39;20068;-73
2021/04/19 09:50:20;;;;;;;9.27;3.58;;;13.00;74.90;;;;;;5929592;39;20052;-73
2021/04/19 09:54:28;;;;;;;8.43;3.30;;;13.20;74.40;;;;;;5935566;39;20125;-73
2021/04/19 09:58:32;;;;;;;9.07;3.20;;;13.30;73.40;;;;;;5938542;39;20476;-72
2021/04/19 10:02:42;;;;;;;7.13;2.63;;;13.40;73.60;;;;;;5943063;39;20044;-73
2021/04/19 10:07:07;;;;;;;11.95;3.40;;;13.40;73.10;;;;;;5951180;39;20063;-71
2021/04/19 10:11:15;;;;;;;8.93;2.83;;;13.40;73.30;;;;;;5944961;39;20438;-73
2021/04/19 10:15:24;;;;;;;7.72;2.85;;;13.60;74.00;;;;;;5944007;39;20048;-73
2021/04/19 10:19:31;;;;;;;8.40;3.10;;;13.60;72.30;;;;;;5951023;39;20049;-73
2021/04/19 10:23:41;;;;;;;6.93;2.95;;;13.70;72.60;;;;;;5940138;39;20351;-73
2021/04/19 10:27:47;;;;;;;8.82;2.80;;;13.60;72.60;;;;;;5940379;39;20062;-74
2021/04/19 10:31:54;;;;;;;7.55;2.75;;;13.70;72.70;;;;;;5939820;39;20099;-73
2021/04/19 10:36:18;;;;;;;7.77;3.03;;;13.80;72.20;;;;;;5947529;39;20303;-73
2021/04/19 10:40:23;;;;;;;9.15;3.35;;;13.70;70.30;;;;;;5952555;39;20420;-73
2021/04/19 10:44:42;;;;;;;8.05;3.53;;;13.80;71.80;;;;;;5945143;39;20415;-66
2021/04/19 10:48:49;;;;;;;10.70;3.40;;;13.90;68.90;;;;;;5943417;39;20449;-67
2021/04/19 10:52:54;;;;;;;6.70;3.58;;;13.60;70.50;;;;;;5941337;39;20118;-68
2021/04/19 10:57:02;;;;;;;9.77;3.58;;;13.80;69.80;;;;;;5940889;39;20348;-67
2021/04/19 11:01:10;;;;;;;6.30;3.42;;;14.00;69.70;;;;;;5933101;39;20655;-67
2021/04/19 11:05:15;;;;;;;8.25;3.20;;;14.10;69.10;;;;;;5929230;39;20289;-67
2021/04/19 11:09:26;;;;;;;6.03;2.25;;;14.30;68.00;;;;;;5933440;39;20066;-67
2021/04/19 11:13:33;;;;;;;10.05;3.58;;;14.40;67.70;;;;;;5929758;39;20109;-67
2021/04/19 11:17:46;;;;;;;10.15;3.53;;;14.30;68.10;;;;;;5936453;39;20063;-67
2021/04/19 11:21:47;;;;;;;6.82;3.47;;;14.50;67.50;;;;;;5937666;39;20056;-68
2021/04/19 11:25:53;;;;;;;8.00;3.70;;;14.40;67.60;;;;;;5915912;39;26137;-67
2021/04/19 11:29:57;;;;;;;6.22;2.72;;;14.40;67.20;;;;;;5938229;39;20041;-67
2021/04/19 11:34:15;;;;;;;8.00;3.75;;;15.40;67.70;;;;;;5930095;39;20302;-68
2021/04/19 11:38:44;;;;;;;8.45;3.55;;;14.50;63.60;;;;;;5940017;39;20066;-68
2021/04/19 11:42:49;;;;;;;7.93;3.00;;;14.70;66.50;;;;;;5932293;39;20048;-68
2021/04/19 11:46:55;;;;;;;10.18;3.47;;;14.90;65.40;;;;;;5938627;39;20043;-68
2021/04/19 11:50:58;;;;;;;6.93;3.47;;;15.00;65.30;;;;;;5943351;39;20056;-69
2021/04/19 11:55:05;;;;;;;11.10;3.90;;;15.20;63.90;;;;;;5941001;39;20502;-67
2021/04/19 11:59:11;;;;;;;9.52;3.55;;;15.20;65.30;;;;;;5943097;39;20424;-67
2021/04/19 12:03:18;;;;;;;9.60;3.22;;;15.30;64.50;;;;;;5943570;39;20044;-67
2021/04/19 12:07:22;;;;;;;10.98;4.03;;;15.50;63.40;;;;;;5942956;39;20028;-68
2021/04/19 12:11:29;;;;;;;12.55;3.78;;;15.50;63.00;;;;;;5932935;39;20056;-68
2021/04/19 12:15:33;;;;;;;8.88;3.72;;;15.70;62.70;;;;;;5943511;39;20393;-68
2021/04/19 12:19:38;;;;;;;6.15;3.70;;;15.80;62.80;;;;;;5931896;39;20043;-68
2021/04/19 12:23:41;;;;;;;4.63;3.10;;;15.80;62.60;;;;;;5943975;39;20453;-67
2021/04/19 12:27:48;;;;;;;7.88;3.58;;;16.00;62.20;;;;;;5944880;39;20068;-67
2021/04/19 12:31:54;;;;;;;7.10;3.40;;;16.00;62.00;;;;;;5943256;39;20084;-68
2021/04/19 12:35:59;;;;;;;7.88;3.28;;;16.00;61.40;;;;;;5942966;39;20048;-66
2021/04/19 12:40:04;;;;;;;7.45;3.72;;;16.10;61.70;;;;;;5943771;39;20118;-67
2021/04/19 12:44:10;;;;;;;6.32;3.67;;;16.00;61.30;;;;;;5942577;39;20059;-68
2021/04/19 12:48:14;;;;;;;6.60;2.53;;;16.00;61.10;;;;;;5944201;39;20127;-68
2021/04/19 12:52:21;;;;;;;11.18;4.38;;;16.00;62.40;;;;;;5943857;39;20040;-67
2021/04/19 12:56:46;;;;;;;9.07;3.63;;;16.00;61.10;;;;;;5941574;39;20052;-68
2021/04/19 13:00:50;;;;;;;7.28;3.63;;;16.10;61.00;;;;;;5944042;39;20068;-67
2021/04/19 13:04:54;;;;;;;8.90;4.38;;;16.20;60.90;;;;;;5933040;39;20052;-68
2021/04/19 13:09:03;;;;;;;8.77;3.97;;;16.20;60.50;;;;;;5945608;39;20048;-67
2021/04/19 13:13:12;;;;;;;6.28;3.28;;;16.30;61.10;;;;;;5935950;39;20130;-69
2021/04/19 13:17:17;;;;;;;8.50;3.50;;;16.40;60.30;;;;;;5939506;39;20056;-67
2021/04/19 13:21:22;;;;;;;8.55;4.10;;;16.40;59.90;;;;;;5934931;39;20407;-67
2021/04/19 13:25:29;;;;;;;14.18;4.00;;;16.40;59.60;;;;;;5943963;39;20605;-67
2021/04/19 13:29:38;;;;;;;5.88;2.78;;;16.40;59.40;;;;;;5942982;39;20068;-67
2021/04/19 13:33:50;;;;;;;5.38;3.30;;;16.40;60.30;;;;;;5941638;39;20133;-68
2021/04/19 13:37:54;;;;;;;7.25;3.42;;;15.90;59.20;;;;;;5941995;39;20056;-66
2021/04/19 13:42:01;;;;;;;7.95;3.70;;;16.30;59.70;;;;;;5933748;39;20414;-67
2021/04/19 13:46:17;;;;;;;7.82;3.17;;;16.30;59.60;;;;;;5934966;39;20046;-66
2021/04/19 13:50:24;;;;;;;8.40;3.10;;;16.40;60.00;;;;;;5939660;39;20078;-68
2021/04/19 13:54:27;;;;;;;11.38;3.80;;;16.40;58.90;;;;;;5923595;39;20036;-67
2021/04/19 13:58:32;;;;;;;10.02;3.58;;;16.40;58.90;;;;;;5938063;39;20504;-68
2021/04/19 14:02:33;;;;;;;6.90;3.00;;;16.40;59.50;;;;;;5929907;39;20055;-67
2021/04/19 14:06:37;;;;;;;5.30;3.45;;;16.40;58.80;;;;;;5941385;39;20156;-67
2021/04/19 14:10:45;;;;;;;7.55;3.08;;;16.40;59.70;;;;;;5929680;39;20062;-67
2021/04/19 14:14:50;;;;;;;7.57;3.63;;;16.40;59.00;;;;;;5929573;39;20036;-68
2021/04/19 14:18:54;;;;;;;11.57;3.92;;;16.40;59.00;;;;;;5939428;39;20090;-68
2021/04/19 14:22:58;;;;;;;8.60;2.90;;;16.50;59.30;;;;;;5939486;39;20140;-69
2021/04/19 14:27:05;;;;;;;7.85;3.38;;;16.50;59.60;;;;;;5934299;39;20052;-68
2021/04/19 14:31:11;;;;;;;13.98;3.38;;;16.40;59.30;;;;;;5943190;39;20052;-66
2021/04/19 14:35:16;;;;;;;8.45;3.70;;;16.20;59.50;;;;;;5933152;39;20240;-67
2021/04/19 14:39:20;;;;;;;8.68;3.05;;;16.20;59.80;;;;;;5943089;39;20063;-67
2021/04/19 14:43:24;;;;;;;7.95;2.45;;;16.20;59.00;;;;;;5940938;39;20059;-68
2021/04/19 14:47:29;;;;;;;4.38;2.00;;;16.10;58.80;;;;;;5940777;39;20183;-68
2021/04/19 14:51:33;;;;;;;6.32;2.70;;;16.10;58.00;;;;;;5942597;39;20052;-67
2021/04/19 14:55:37;;;;;;;4.50;2.03;;;16.10;57.50;;;;;;5932716;39;20076;-68
2021/04/19 14:59:44;;;;;;;5.13;2.08;;;16.00;56.60;;;;;;5931109;39;20409;-68
2021/04/19 15:03:49;;;;;;;4.38;1.67;;;15.90;56.70;;;;;;5940688;39;20583;-67
2021/04/19 15:07:53;;;;;;;6.70;2.33;;;15.80;55.70;;;;;;5941761;39;20430;-68
2021/04/19 15:11:59;;;;;;;5.18;1.77;;;15.90;56.40;;;;;;5940547;39;20398;-67
2021/04/19 15:16:06;;;;;;;5.22;1.88;;;15.90;55.90;;;;;;5940025;39;20040;-68
2021/04/19 15:20:13;;;;;;;8.02;2.17;;;15.80;55.50;;;;;;5939826;39;20055;-68
2021/04/19 15:24:18;;;;;;;8.68;2.80;;;15.80;55.60;;;;;;5941821;39;20074;-67
2021/04/19 15:28:22;;;;;;;10.07;4.22;;;15.70;55.80;;;;;;5943254;39;20246;-66
2021/04/19 15:32:28;;;;;;;10.32;3.13;;;15.70;55.80;;;;;;5939360;39;20068;-67
2021/04/19 15:36:38;;;;;;;8.50;2.35;;;15.60;56.50;;;;;;5943551;39;20403;-68
2021/04/19 15:40:42;;;;;;;5.22;1.80;;;15.60;56.00;;;;;;5945060;39;20056;-67
2021/04/19 15:44:49;;;;;;;5.75;2.00;;;15.60;56.70;;;;;;5930780;39;20517;-67
2021/04/19 15:48:54;;;;;;;8.13;2.28;;;15.60;55.60;;;;;;5924137;39;20055;-67
2021/04/19 15:52:59;;;;;;;6.10;1.77;;;15.50;55.60;;;;;;5941980;39;20066;-67
2021/04/19 15:57:21;;;;;;;6.10;2.35;;;15.50;54.90;;;;;;5934654;39;20421;-67
2021/04/19 16:01:25;;;;;;;6.22;1.90;;;15.40;54.70;;;;;;5944977;39;20063;-67
2021/04/19 16:05:29;;;;;;;5.32;1.85;;;15.40;54.60;;;;;;5942244;39;20050;-68
2021/04/19 16:09:33;;;;;;;8.38;2.40;;;15.30;54.00;;;;;;5940469;39;20044;-67
2021/04/19 16:13:34;;;;;;;7.40;2.17;;;15.40;54.40;;;;;;5932233;39;20048;-68
2021/04/19 16:17:37;;;;;;;8.80;2.33;;;15.30;54.10;;;;;;5943948;39;20478;-68
2021/04/19 16:21:41;;;;;;;7.60;3.00;;;15.30;53.90;;;;;;5943347;39;20064;-66
2021/04/19 16:25:45;;;;;;;7.78;3.22;;;15.20;54.70;;;;;;5937443;39;20485;-68
2021/04/19 16:29:50;;;;;;;10.20;2.95;;;15.20;55.20;;;;;;5941325;39;20064;-68
2021/04/19 16:33:54;;;;;;;6.13;2.90;;;15.10;55.20;;;;;;5930451;39;20105;-67
2021/04/19 16:37:58;;;;;;;12.70;3.22;;;15.00;55.60;;;;;;5935353;39;20092;-67
2021/04/19 16:42:03;;;;;;;6.53;3.10;;;15.00;55.60;;;;;;5944489;39;20400;-66
2021/04/19 16:46:08;;;;;;;6.95;3.53;;;14.90;55.70;;;;;;5932807;39;20052;-66
2021/04/19 16:50:14;;;;;;;6.38;2.83;;;14.80;55.90;;;;;;5938153;39;20152;-68
2021/04/19 16:54:25;;;;;;;11.02;3.03;;;14.80;55.60;;;;;;5943276;39;20044;-67
2021/04/19 16:58:29;;;;;;;10.07;3.00;;;14.70;56.60;;;;;;5942995;39;20691;-67
2021/04/19 17:02:33;;;;;;;9.10;2.60;;;14.70;55.90;;;;;;5930453;39;20119;-67
2021/04/19 17:06:37;;;;;;;5.65;3.30;;;14.70;56.00;;;;;;5932431;39;20044;-68
2021/04/19 17:10:45;;;;;;;7.00;3.10;;;14.60;56.20;;;;;;5940164;39;20066;-65
2021/04/19 17:14:51;;;;;;;5.75;2.85;;;14.50;56.70;;;;;;5924400;39;20042;-66
2021/04/19 17:18:56;;;;;;;7.03;3.40;;;14.40;56.90;;;;;;5937674;39;20050;-67
2021/04/19 17:23:04;;;;;;;8.55;3.63;;;14.30;57.50;;;;;;5940793;39;20071;-66
2021/04/19 17:27:09;;;;;;;9.50;3.53;;;14.30;57.60;;;;;;5943667;39;20304;-68
2021/04/19 17:31:14;;;;;;;9.85;3.50;;;14.30;58.40;;;;;;5943452;39;20158;-68
2021/04/19 17:35:19;;;;;;;10.73;3.70;;;14.30;58.60;;;;;;5931500;39;20382;-67
2021/04/19 17:39:27;;;;;;;9.90;3.67;;;14.30;58.10;;;;;;5942544;39;20052;-65
2021/04/19 17:43:34;;;;;;;7.55;3.40;;;14.20;58.30;;;;;;5941629;39;20059;-68
2021/04/19 17:47:39;;;;;;;9.48;3.70;;;14.10;59.20;;;;;;5938835;39;20056;-68
2021/04/19 17:51:43;;;;;;;10.50;3.92;;;14.10;59.20;;;;;;5927759;39;20644;-66
2021/04/19 17:55:49;;;;;;;11.35;3.75;;;14.10;59.70;;;;;;5942336;39;20052;-67
2021/04/19 17:59:51;;;;;;;7.63;3.38;;;14.10;59.70;;;;;;5934023;39;20055;-66
2021/04/19 18:03:57;;;;;;;7.28;3.45;;;14.00;59.70;;;;;;5940864;39;20068;-67
2021/04/19 18:08:05;;;;;;;7.57;3.90;;;13.90;59.00;;;;;;5939946;39;20055;-66
2021/04/19 18:12:11;;;;;;;8.18;3.60;;;13.80;59.90;;;;;;5931580;39;20688;-67
2021/04/19 18:16:15;;;;;;;8.82;4.20;;;13.80;59.90;;;;;;5946012;39;20060;-67
2021/04/19 18:20:20;;;;;;;6.72;3.20;;;13.70;59.90;;;;;;5942696;39;20123;-67
2021/04/19 18:24:24;;;;;;;9.80;3.78;;;13.70;60.10;;;;;;5932367;39;20411;-68
2021/04/19 18:28:29;;;;;;;7.22;3.95;;;13.70;60.20;;;;;;5933884;39;20590;-67
2021/04/19 18:32:33;;;;;;;13.07;4.82;;;13.60;60.40;;;;;;5943280;39;20055;-67
2021/04/19 18:36:37;;;;;;;11.70;5.72;;;13.60;60.90;;;;;;5938319;39;20180;-66
2021/04/19 18:40:42;;;;;;;12.95;5.22;;;13.50;61.30;;;;;;5937216;39;20354;-67
2021/04/19 18:44:48;;;;;;;16.20;4.38;;;13.50;61.60;;;;;;5929676;39;20064;-68
2021/04/19 18:48:57;;;;;;;8.25;3.85;;;13.50;61.80;;;;;;5945982;39;20073;-70
2021/04/19 18:53:04;;;;;;;10.93;3.40;;;13.40;62.00;;;;;;5946779;39;20417;-71
2021/04/19 18:57:15;;;;;;;12.55;3.42;;;13.40;62.30;;;;;;5950982;39;20066;-71
2021/04/19 19:01:20;;;;;;;6.75;3.00;;;13.30;62.30;;;;;;5941505;39;20108;-71
2021/04/19 19:05:27;;;;;;;8.50;3.95;;;13.30;62.70;;;;;;5942055;39;20059;-70
2021/04/19 19:09:35;;;;;;;10.40;7.32;;;13.20;63.00;;;;;;5949354;39;20067;-71
2021/04/19 19:13:47;;;;;;;8.18;3.75;;;13.10;63.10;;;;;;5958854;39;20062;-71
2021/04/19 19:17:51;;;;;;;10.75;3.50;;;13.00;63.30;;;;;;5954822;39;20043;-71
2021/04/19 19:22:01;;;;;;;7.38;3.63;;;12.90;63.60;;;;;;5955423;39;20608;-70
2021/04/19 19:26:08;;;;;;;8.98;3.97;;;12.80;63.80;;;;;;5952179;39;20060;-71
2021/04/19 19:30:13;;;;;;;8.70;4.15;;;12.70;63.60;;;;;;5955188;40;20275;-71
2021/04/19 19:34:17;;;;;;;8.27;3.97;;;12.60;63.60;;;;;;5957368;39;20032;-71
2021/04/19 19:38:24;;;;;;;9.95;4.00;;;12.60;63.90;;;;;;5955064;39;20055;-71
2021/04/19 19:42:26;;;;;;;9.15;4.25;;;12.50;63.90;;;;;;5944969;39;20056;-71
2021/04/19 19:46:32;;;;;;;8.27;4.00;;;12.40;64.10;;;;;;5942839;39;20425;-71
2021/04/19 19:50:39;;;;;;;8.95;4.20;;;12.30;64.10;;;;;;5945625;39;20056;-71
2021/04/19 19:54:45;;;;;;;9.02;4.47;;;12.30;64.20;;;;;;5945020;40;20054;-71
2021/04/19 19:58:51;;;;;;;10.88;4.97;;;12.20;63.80;;;;;;5929802;40;20411;-71
2021/04/19 20:02:55;;;;;;;9.95;4.43;;;12.10;63.70;;;;;;5953908;39;20439;-71
2021/04/19 20:06:59;;;;;;;8.98;3.95;;;12.10;63.80;;;;;;5955486;39;20034;-71
2021/04/19 20:11:06;;;;;;;5.45;3.40;;;12.00;63.80;;;;;;5938235;39;20060;-71
2021/04/19 20:15:12;;;;;;;10.10;3.90;;;11.90;63.80;;;;;;5939869;39;20466;-70
2021/04/19 20:19:19;;;;;;;9.75;3.58;;;11.80;64.10;;;;;;5947515;39;20040;-70
2021/04/19 20:23:26;;;;;;;7.88;3.38;;;11.70;64.10;;;;;;5948055;39;20105;-71
2021/04/19 20:27:33;;;;;;;8.88;4.50;;;11.60;64.20;;;;;;5953169;39;20444;-71
2021/04/19 20:31:40;;;;;;;9.35;3.75;;;11.50;64.50;;;;;;5948900;40;20308;-71
2021/04/19 20:35:48;;;;;;;7.10;3.35;;;11.40;64.30;;;;;;5951016;39;20054;-71
2021/04/19 20:39:53;;;;;;;9.20;3.75;;;11.40;64.70;;;;;;5952595;39;20056;-71
2021/04/19 20:44:01;;;;;;;6.13;3.40;;;11.30;64.80;;;;;;5950816;39;20331;-71
2021/04/19 20:48:06;;;;;;;7.15;3.90;;;11.20;64.90;;;;;;5950223;39;20047;-71
2021/04/19 20:52:10;;;;;;;7.45;3.33;;;11.10;65.30;;;;;;5951212;39;20085;-70
2021/04/19 20:56:15;;;;;;;7.57;3.70;;;11.00;65.60;;;;;;5944824;39;20044;-71
2021/04/19 21:00:21;;;;;;;11.20;4.22;;;10.90;66.00;;;;;;5942717;40;20056;-71
2021/04/19 21:04:24;;;;;;;8.82;3.67;;;10.70;66.20;;;;;;5938469;39;20292;-71
2021/04/19 21:08:30;;;;;;;10.88;3.92;;;10.60;66.80;;;;;;5946999;39;20390;-70
2021/04/19 21:12:39;;;;;;;11.23;4.50;;;10.50;67.70;;;;;;5951181;39;20066;-71
2021/04/19 21:16:43;;;;;;;9.60;4.10;;;10.40;68.00;;;;;;5950967;39;20036;-71
2021/04/19 21:20:47;;;;;;;10.00;3.92;;;10.30;67.40;;;;;;5945679;39;20386;-71
2021/04/19 21:24:52;;;;;;;8.30;4.35;;;10.30;67.30;;;;;;5949468;39;20048;-71
2021/04/19 21:28:58;;;;;;;10.05;4.25;;;10.20;67.40;;;;;;5939105;39;20197;-71